Terminal Aerodrome Forecast
Issued by NWS

Home | Current Version | Previous Version | Graphics & Text | Print | Product List | Glossary On
Versions: 1 2 3 4 5 6 7 8 9 10 11 12 13
000
FTUS43 KOAX 162320
TAFCDR
TAF
KCDR 162320Z 1700/1724 17013G19KT P6SM BKN250
     FM171600 21018G28KT P6SM BKN100 BKN250
     FM172100 28025G35KT P6SM BKN050 OVC100=

USA.gov is the U.S. government's official web portal to all federal, state and local government web resources and services.